createdAt,value
2017-09-23T00:00:40.463Z,13.70
2017-09-23T00:03:08.892Z,13.70
2017-09-23T00:05:37.514Z,13.60
2017-09-23T00:08:05.916Z,13.40
2017-09-23T00:10:34.314Z,13.20
2017-09-23T00:13:03.517Z,13.10
2017-09-23T00:15:32.670Z,13.20
2017-09-23T00:18:01.051Z,13.20
2017-09-23T00:20:29.477Z,13.20
2017-09-23T00:22:57.869Z,13.20
2017-09-23T00:25:26.265Z,13.20
2017-09-23T00:27:54.655Z,13.20
2017-09-23T00:30:23.078Z,13.10
2017-09-23T00:32:52.226Z,12.90
2017-09-23T00:35:20.480Z,13.00
2017-09-23T00:37:48.921Z,12.80
2017-09-23T00:40:18.074Z,12.50
2017-09-23T00:42:46.497Z,12.50
2017-09-23T00:45:15.651Z,12.20
2017-09-23T00:47:44.037Z,12.30
2017-09-23T00:50:13.110Z,12.20
2017-09-23T00:52:40.812Z,12.20
2017-09-23T00:55:09.217Z,12.30
2017-09-23T00:57:38.367Z,12.00
2017-09-23T01:00:06.860Z,11.90
2017-09-23T01:02:35.237Z,11.80
2017-09-23T01:05:03.634Z,11.70
2017-09-23T01:07:32.035Z,11.80
2017-09-23T01:10:01.188Z,12.10
2017-09-23T01:12:29.594Z,12.10
2017-09-23T01:14:58.754Z,11.90
2017-09-23T01:17:27.134Z,11.90
2017-09-23T01:19:55.537Z,11.90
2017-09-23T01:22:23.930Z,12.10
2017-09-23T01:24:52.561Z,12.10
2017-09-23T01:27:20.606Z,12.10
2017-09-23T01:29:48.999Z,12.00
2017-09-23T01:32:17.725Z,12.00
2017-09-23T01:34:46.130Z,11.90
2017-09-23T01:37:15.278Z,11.50
2017-09-23T01:39:43.987Z,11.50
2017-09-23T01:42:12.369Z,11.50
2017-09-23T01:44:40.761Z,11.60
2017-09-23T01:47:09.930Z,11.50
2017-09-23T01:49:38.311Z,11.50
2017-09-23T01:52:06.719Z,11.50
2017-09-23T01:54:35.890Z,11.20
2017-09-23T01:57:04.598Z,11.20
2017-09-23T01:59:33.750Z,11.20
2017-09-23T02:02:02.148Z,11.20
2017-09-23T02:04:30.562Z,11.40
2017-09-23T02:06:59.746Z,11.60
2017-09-23T02:09:28.910Z,11.70
2017-09-23T02:11:57.311Z,11.70
2017-09-23T02:14:25.805Z,11.80
2017-09-23T02:16:54.961Z,11.80
2017-09-23T02:19:23.341Z,11.80
2017-09-23T02:21:51.751Z,11.80
2017-09-23T02:24:20.147Z,11.80
2017-09-23T02:26:48.549Z,11.90
2017-09-23T02:29:16.936Z,11.90
2017-09-23T02:31:45.696Z,11.90
2017-09-23T02:34:14.080Z,11.80
2017-09-23T02:36:42.108Z,11.80
2017-09-23T02:39:10.498Z,11.80
2017-09-23T02:41:38.707Z,11.80
2017-09-23T02:44:07.118Z,11.90
2017-09-23T02:46:35.576Z,11.90
2017-09-23T02:49:03.973Z,11.80
2017-09-23T02:51:32.358Z,11.80
2017-09-23T02:54:00.977Z,11.90
2017-09-23T02:56:30.143Z,11.80
2017-09-23T02:58:59.286Z,11.80
2017-09-23T03:01:27.687Z,11.70
2017-09-23T03:03:56.069Z,11.80
2017-09-23T03:06:24.470Z,11.80
2017-09-23T03:08:52.850Z,11.90
2017-09-23T03:11:21.269Z,11.90
2017-09-23T03:13:50.429Z,12.30
2017-09-23T03:16:18.814Z,12.30
2017-09-23T03:18:47.226Z,12.40
2017-09-23T03:21:15.614Z,12.40
2017-09-23T03:23:44.022Z,12.40
2017-09-23T03:26:12.659Z,12.50
2017-09-23T03:28:41.940Z,12.40
2017-09-23T03:31:10.367Z,12.40
2017-09-23T03:33:38.984Z,12.30
2017-09-23T03:36:07.394Z,12.10
2017-09-23T03:38:36.563Z,11.80
2017-09-23T03:41:04.954Z,11.80
2017-09-23T03:43:33.154Z,11.70
2017-09-23T03:46:02.321Z,11.60
2017-09-23T03:48:30.714Z,11.60
2017-09-23T03:50:59.112Z,11.50
2017-09-23T03:53:27.512Z,11.50
2017-09-23T03:55:55.917Z,11.40
2017-09-23T03:58:24.324Z,11.40
2017-09-23T04:00:52.378Z,11.30
2017-09-23T04:03:20.773Z,11.20
2017-09-23T04:05:49.170Z,11.10
2017-09-23T04:08:18.532Z,10.90
2017-09-23T04:10:46.914Z,10.90
2017-09-23T04:13:15.309Z,10.70
2017-09-23T04:15:43.710Z,10.60
2017-09-23T04:18:12.861Z,10.40
2017-09-23T04:20:41.262Z,10.40
2017-09-23T04:23:09.462Z,10.30
2017-09-23T04:25:38.658Z,10.20
2017-09-23T04:28:07.810Z,10.30
2017-09-23T04:30:36.197Z,10.30
2017-09-23T04:33:04.615Z,10.40
2017-09-23T04:35:33.010Z,10.40
2017-09-23T04:38:01.421Z,10.30
2017-09-23T04:40:29.823Z,10.30
2017-09-23T04:42:58.557Z,10.20
2017-09-23T04:45:26.942Z,10.10
2017-09-23T04:47:55.322Z,9.90
2017-09-23T04:50:23.713Z,9.80
2017-09-23T04:52:52.117Z,9.70
2017-09-23T04:55:20.523Z,9.70
2017-09-23T04:57:48.924Z,9.70
2017-09-23T05:00:17.349Z,9.80
2017-09-23T05:02:45.770Z,9.70
2017-09-23T05:05:14.147Z,9.70
2017-09-23T05:07:42.549Z,10.00
2017-09-23T05:10:10.949Z,10.10
2017-09-23T05:12:39.359Z,10.10
2017-09-23T05:15:08.521Z,10.30
2017-09-23T05:17:37.143Z,10.20
2017-09-23T05:20:06.299Z,10.30
2017-09-23T05:22:34.705Z,10.30
2017-09-23T05:25:03.098Z,10.40
2017-09-23T05:27:32.249Z,10.40
2017-09-23T05:30:00.973Z,10.40
2017-09-23T05:32:30.136Z,10.40
2017-09-23T05:34:58.544Z,10.40
2017-09-23T05:37:26.935Z,10.40
2017-09-23T05:39:56.085Z,10.40
2017-09-23T05:42:24.507Z,10.40
2017-09-23T05:44:53.721Z,10.50
2017-09-23T05:47:22.130Z,10.50
2017-09-23T05:49:50.559Z,10.50
2017-09-23T05:52:19.717Z,10.60
2017-09-23T05:54:48.117Z,10.60
2017-09-23T05:57:16.505Z,10.60
2017-09-23T05:59:44.903Z,10.70
2017-09-23T06:02:13.871Z,10.60
2017-09-23T06:04:42.473Z,10.60
2017-09-23T06:07:17.133Z,10.70
2017-09-23T06:09:46.182Z,10.60
2017-09-23T06:12:14.561Z,10.70
2017-09-23T06:14:42.948Z,10.70
2017-09-23T06:17:12.115Z,10.70
2017-09-23T06:19:42.097Z,10.60
2017-09-23T06:22:10.510Z,10.70
2017-09-23T06:24:38.898Z,10.70
2017-09-23T06:27:07.506Z,10.80
2017-09-23T06:29:35.747Z,10.80
2017-09-23T06:32:04.130Z,10.80
2017-09-23T06:34:32.536Z,10.90
2017-09-23T06:37:01.995Z,11.00
2017-09-23T06:39:30.419Z,10.90
2017-09-23T06:41:58.831Z,11.00
2017-09-23T06:44:27.339Z,11.00
2017-09-23T06:46:55.752Z,11.00
2017-09-23T06:49:24.982Z,11.20
2017-09-23T06:51:53.382Z,11.10
2017-09-23T06:54:21.848Z,11.20
2017-09-23T06:56:50.262Z,11.30
2017-09-23T06:59:18.658Z,11.40
2017-09-23T07:01:48.078Z,11.50
2017-09-23T07:04:17.230Z,11.60
2017-09-23T07:06:45.619Z,11.60
2017-09-23T07:09:14.030Z,11.60
2017-09-23T07:11:43.191Z,11.80
2017-09-23T07:14:11.618Z,11.80
2017-09-23T07:16:40.010Z,11.90
2017-09-23T07:19:08.432Z,11.80
2017-09-23T07:21:36.826Z,12.00
2017-09-23T07:24:05.230Z,12.10
2017-09-23T07:26:33.770Z,12.20
2017-09-23T07:29:02.330Z,12.30
2017-09-23T07:31:30.720Z,12.40
2017-09-23T07:33:59.131Z,12.40
2017-09-23T07:36:27.547Z,12.40
2017-09-23T07:38:56.295Z,12.50
2017-09-23T07:41:25.450Z,12.70
2017-09-23T07:43:53.842Z,12.70
2017-09-23T07:46:22.250Z,12.20
2017-09-23T07:48:51.654Z,11.80
2017-09-23T07:51:20.818Z,11.60
2017-09-23T07:53:49.213Z,11.60
2017-09-23T07:56:17.615Z,11.90
2017-09-23T07:58:46.796Z,12.50
2017-09-23T08:01:16.010Z,12.10
2017-09-23T08:03:45.166Z,12.00
2017-09-23T08:06:13.870Z,12.00
2017-09-23T08:08:42.266Z,12.20
2017-09-23T08:11:11.430Z,12.60
2017-09-23T08:13:39.839Z,12.60
2017-09-23T08:16:09.010Z,12.70
2017-09-23T08:18:37.080Z,12.70
2017-09-23T08:21:05.476Z,12.70
2017-09-23T08:23:34.182Z,12.90
2017-09-23T08:26:02.582Z,13.00
2017-09-23T08:28:30.999Z,12.90
2017-09-23T08:30:59.453Z,13.10
2017-09-23T08:33:27.654Z,13.20
2017-09-23T08:35:56.087Z,13.30
2017-09-23T08:38:24.575Z,13.50
2017-09-23T08:40:53.216Z,13.40
2017-09-23T08:43:21.618Z,13.60
2017-09-23T08:45:50.011Z,13.60
2017-09-23T08:48:18.426Z,13.70
2017-09-23T08:50:46.811Z,13.70
2017-09-23T08:53:15.210Z,13.60
2017-09-23T08:55:44.380Z,13.90
2017-09-23T08:58:13.015Z,13.80
2017-09-23T09:00:41.473Z,14.30
2017-09-23T09:03:10.630Z,15.00
2017-09-23T09:05:38.848Z,15.00
2017-09-23T09:08:08.002Z,15.00
2017-09-23T09:10:36.409Z,15.00
2017-09-23T09:13:04.883Z,15.00
2017-09-23T09:15:33.285Z,15.50
2017-09-23T09:18:02.474Z,16.10
2017-09-23T09:20:31.788Z,16.30
2017-09-23T09:23:00.978Z,16.60
2017-09-23T09:25:30.142Z,15.80
2017-09-23T09:27:58.560Z,15.80
2017-09-23T09:30:27.714Z,15.10
2017-09-23T09:32:56.123Z,15.10
2017-09-23T09:35:25.302Z,16.90
2017-09-23T09:37:53.810Z,16.80
2017-09-23T09:40:22.962Z,17.60
2017-09-23T09:42:51.450Z,17.50
2017-09-23T09:45:19.875Z,18.10
2017-09-23T09:47:48.367Z,16.50
2017-09-23T09:50:16.793Z,15.20
2017-09-23T09:52:45.181Z,14.60
2017-09-23T09:55:13.399Z,15.90
2017-09-23T09:57:41.812Z,16.70
2017-09-23T10:00:10.215Z,16.00
2017-09-23T10:02:38.602Z,14.80
2017-09-23T10:05:07.806Z,15.80
2017-09-23T10:07:36.962Z,16.70
2017-09-23T10:10:05.414Z,16.70
2017-09-23T10:12:49.991Z,16.00
2017-09-23T10:15:18.478Z,15.60
2017-09-23T10:17:46.879Z,15.50
2017-09-23T10:20:15.365Z,16.40
2017-09-23T10:22:43.852Z,15.30
2017-09-23T10:25:13.018Z,14.70
2017-09-23T10:27:41.443Z,14.70
2017-09-23T10:30:10.628Z,15.80
2017-09-23T10:32:39.863Z,16.40
2017-09-23T10:35:08.284Z,16.30
2017-09-23T10:37:36.674Z,16.10
2017-09-23T10:40:05.275Z,16.50
2017-09-23T10:42:34.446Z,15.30
2017-09-23T10:45:02.856Z,15.30
2017-09-23T10:47:31.312Z,15.20
2017-09-23T10:49:59.889Z,16.20
2017-09-23T10:52:29.082Z,15.70
2017-09-23T10:54:57.471Z,15.70
2017-09-23T10:57:26.072Z,15.60
2017-09-23T10:59:55.250Z,15.10
2017-09-23T11:02:23.646Z,15.10
2017-09-23T11:04:52.064Z,15.10
2017-09-23T11:07:20.458Z,15.00
2017-09-23T11:09:48.870Z,14.50
2017-09-23T11:12:18.039Z,14.40
2017-09-23T11:14:46.662Z,14.40
2017-09-23T11:17:15.059Z,15.00
2017-09-23T11:19:43.448Z,15.80
2017-09-23T11:22:11.881Z,16.10
2017-09-23T11:24:40.275Z,15.70
2017-09-23T11:27:09.457Z,15.60
2017-09-23T11:29:37.848Z,15.60
2017-09-23T11:32:07.237Z,16.10
2017-09-23T11:34:35.651Z,16.10
2017-09-23T11:37:04.044Z,16.20
2017-09-23T11:39:32.455Z,16.10
2017-09-23T11:42:00.656Z,15.70
2017-09-23T11:44:29.106Z,16.20
2017-09-23T11:46:57.490Z,16.30
2017-09-23T11:49:25.899Z,15.40
2017-09-23T11:51:55.070Z,15.20
2017-09-23T11:54:23.462Z,15.20
2017-09-23T11:56:59.215Z,16.60
2017-09-23T11:59:31.693Z,16.50
2017-09-23T12:02:00.186Z,16.10
2017-09-23T12:04:28.575Z,15.80
2017-09-23T12:06:56.977Z,16.20
2017-09-23T12:09:25.469Z,17.30
2017-09-23T12:11:54.636Z,17.30
2017-09-23T12:14:23.051Z,17.30
2017-09-23T12:16:51.446Z,17.10
2017-09-23T12:19:19.764Z,16.00
2017-09-23T12:21:48.157Z,16.40
2017-09-23T12:24:16.544Z,16.00
2017-09-23T12:26:44.951Z,15.40
2017-09-23T12:29:13.351Z,15.40
2017-09-23T12:31:42.537Z,16.00
2017-09-23T12:34:10.947Z,15.90
2017-09-23T12:36:39.371Z,16.20
2017-09-23T12:39:07.781Z,16.20
2017-09-23T12:41:37.239Z,15.70
2017-09-23T12:44:05.635Z,15.70
2017-09-23T12:46:34.025Z,15.80
2017-09-23T12:49:02.431Z,16.20
2017-09-23T12:51:31.590Z,15.40
2017-09-23T12:54:00.039Z,15.40
2017-09-23T12:56:28.446Z,15.40
2017-09-23T12:58:56.899Z,15.30
2017-09-23T13:01:25.279Z,15.10
2017-09-23T13:03:53.686Z,15.00
2017-09-23T13:06:22.137Z,15.10
2017-09-23T13:08:50.518Z,15.50
2017-09-23T13:11:19.150Z,15.80
2017-09-23T13:13:48.322Z,15.80
2017-09-23T13:16:16.714Z,15.80
2017-09-23T13:18:45.113Z,15.90
2017-09-23T13:21:14.271Z,16.10
2017-09-23T13:23:42.725Z,16.00
2017-09-23T13:26:10.924Z,16.20
2017-09-23T13:28:39.330Z,16.20
2017-09-23T13:31:08.500Z,17.70
2017-09-23T13:33:37.677Z,17.10
2017-09-23T13:36:06.095Z,17.10
2017-09-23T13:38:34.514Z,16.60
2017-09-23T13:41:02.927Z,16.70
2017-09-23T13:43:31.370Z,16.70
2017-09-23T13:45:59.906Z,16.90
2017-09-23T13:48:28.315Z,17.00
2017-09-23T13:50:57.550Z,18.00
2017-09-23T13:53:25.959Z,18.00
2017-09-23T13:55:54.371Z,17.60
2017-09-23T13:58:23.371Z,16.60
2017-09-23T14:00:52.533Z,16.50
2017-09-23T14:03:21.247Z,16.50
2017-09-23T14:05:49.656Z,16.70
2017-09-23T14:08:18.049Z,17.30
2017-09-23T14:10:46.472Z,17.60
2017-09-23T14:13:15.643Z,16.30
2017-09-23T14:15:44.077Z,16.30
2017-09-23T14:18:12.468Z,16.30
2017-09-23T14:20:41.666Z,16.40
2017-09-23T14:23:10.060Z,16.40
2017-09-23T14:25:38.458Z,16.60
2017-09-23T14:28:06.869Z,16.60
2017-09-23T14:30:36.063Z,16.50
2017-09-23T14:33:04.489Z,16.50
2017-09-23T14:35:32.886Z,16.40
2017-09-23T14:38:01.687Z,16.40
2017-09-23T14:40:30.099Z,16.50
2017-09-23T14:42:58.554Z,16.40
2017-09-23T14:45:26.966Z,16.50
2017-09-23T14:47:55.363Z,16.50
2017-09-23T14:50:23.773Z,16.30
2017-09-23T14:52:52.170Z,16.50
2017-09-23T14:55:20.613Z,16.40
2017-09-23T14:57:49.090Z,16.40
2017-09-23T15:00:17.303Z,16.50
2017-09-23T15:02:45.714Z,16.40
2017-09-23T15:05:14.124Z,16.30
2017-09-23T15:07:42.348Z,16.40
2017-09-23T15:10:11.517Z,16.40
2017-09-23T15:12:39.939Z,16.30
2017-09-23T15:15:08.340Z,16.40
2017-09-23T15:17:36.730Z,16.40
2017-09-23T15:20:05.136Z,16.50
2017-09-23T15:22:33.529Z,16.70
2017-09-23T15:25:02.057Z,16.80
2017-09-23T15:27:30.446Z,16.60
2017-09-23T15:29:58.976Z,16.60
2017-09-23T15:32:28.801Z,16.60
2017-09-23T15:34:57.023Z,16.60
2017-09-23T15:37:25.430Z,16.50
2017-09-23T15:39:53.653Z,16.30
2017-09-23T15:42:22.062Z,16.20
2017-09-23T15:44:50.508Z,16.40
2017-09-23T15:47:18.725Z,16.30
2017-09-23T15:49:47.166Z,16.20
2017-09-23T15:52:15.570Z,16.20
2017-09-23T15:54:43.969Z,16.20
2017-09-23T15:57:12.202Z,16.20
2017-09-23T15:59:40.622Z,16.20
2017-09-23T16:02:08.826Z,16.00
2017-09-23T16:04:37.502Z,16.10
2017-09-23T16:07:06.717Z,16.20
2017-09-23T16:09:35.099Z,16.20
2017-09-23T16:12:03.497Z,16.30
2017-09-23T16:14:31.898Z,16.10
2017-09-23T16:17:00.362Z,16.10
2017-09-23T16:19:28.770Z,16.00
2017-09-23T16:21:57.420Z,16.10
2017-09-23T16:24:25.665Z,16.00
2017-09-23T16:26:53.913Z,15.90
2017-09-23T16:29:22.309Z,15.80
2017-09-23T16:31:51.478Z,15.80
2017-09-23T16:34:20.662Z,15.70
2017-09-23T16:36:49.069Z,15.70
2017-09-23T16:39:18.261Z,15.60
2017-09-23T16:41:46.690Z,15.60
2017-09-23T16:44:15.119Z,15.60
2017-09-23T16:46:44.282Z,15.50
2017-09-23T16:49:12.719Z,15.50
2017-09-23T16:51:41.121Z,15.40
2017-09-23T16:54:09.510Z,15.40
2017-09-23T16:56:37.916Z,15.30
2017-09-23T16:59:06.298Z,15.30
2017-09-23T17:01:34.725Z,15.30
2017-09-23T17:04:03.110Z,15.20
2017-09-23T17:06:31.512Z,15.10
2017-09-23T17:08:59.911Z,15.10
2017-09-23T17:11:28.314Z,15.00
2017-09-23T17:13:57.505Z,14.90
2017-09-23T17:16:26.675Z,14.80
2017-09-23T17:18:55.378Z,14.80
2017-09-23T17:21:24.542Z,15.10
2017-09-23T17:23:52.937Z,15.00
2017-09-23T17:26:21.342Z,15.10
2017-09-23T17:28:50.502Z,14.70
2017-09-23T17:31:18.911Z,14.70
2017-09-23T17:33:48.075Z,14.60
2017-09-23T17:36:17.823Z,14.60
2017-09-23T17:38:46.979Z,14.90
2017-09-23T17:41:15.366Z,14.90
2017-09-23T17:43:43.772Z,14.90
2017-09-23T17:46:12.942Z,14.80
2017-09-23T17:48:41.342Z,14.70
2017-09-23T17:51:09.731Z,14.70
2017-09-23T17:53:38.904Z,14.60
2017-09-23T17:56:07.275Z,14.60
2017-09-23T17:58:35.690Z,14.50
2017-09-23T18:01:04.842Z,14.40
2017-09-23T18:03:33.297Z,14.30
2017-09-23T18:06:01.718Z,14.40
2017-09-23T18:08:30.123Z,14.40
2017-09-23T18:10:59.286Z,14.20
2017-09-23T18:13:27.671Z,14.20
2017-09-23T18:15:56.293Z,14.10
2017-09-23T18:18:24.679Z,13.90
2017-09-23T18:20:53.084Z,13.70
2017-09-23T18:23:21.501Z,13.60
2017-09-23T18:25:50.668Z,13.50
2017-09-23T18:28:19.063Z,13.50
2017-09-23T18:30:47.451Z,13.40
2017-09-23T18:33:16.018Z,13.30
2017-09-23T18:35:44.405Z,13.20
2017-09-23T18:38:12.794Z,13.20
2017-09-23T18:40:41.188Z,13.20
2017-09-23T18:43:10.355Z,13.00
2017-09-23T18:45:38.756Z,13.00
2017-09-23T18:48:07.913Z,12.70
2017-09-23T18:50:36.334Z,12.70
2017-09-23T18:53:05.502Z,12.60
2017-09-23T18:55:33.893Z,12.60
2017-09-23T18:58:02.313Z,12.60
2017-09-23T19:00:30.922Z,12.40
2017-09-23T19:02:59.342Z,12.30
2017-09-23T19:05:28.502Z,12.10
2017-09-23T19:07:57.226Z,12.00
2017-09-23T19:10:26.394Z,12.10
2017-09-23T19:12:54.789Z,12.00
2017-09-23T19:15:23.192Z,12.00
2017-09-23T19:17:51.603Z,11.90
2017-09-23T19:20:20.015Z,11.80
2017-09-23T19:22:48.418Z,11.80
2017-09-23T19:25:17.581Z,11.70
2017-09-23T19:27:45.974Z,11.70
2017-09-23T19:30:14.363Z,11.60
2017-09-23T19:32:42.801Z,11.60
2017-09-23T19:35:11.199Z,11.50
2017-09-23T19:37:39.895Z,11.50
2017-09-23T19:40:08.299Z,11.40
2017-09-23T19:42:37.466Z,11.30
2017-09-23T19:45:05.881Z,11.30
2017-09-23T19:47:34.273Z,11.30
2017-09-23T19:50:02.675Z,11.30
2017-09-23T19:52:31.078Z,11.40
2017-09-23T19:54:59.693Z,11.40
2017-09-23T19:57:28.858Z,11.20
2017-09-23T19:59:57.365Z,11.20
2017-09-23T20:02:26.525Z,11.00
2017-09-23T20:04:54.979Z,11.00
2017-09-23T20:07:23.416Z,10.90
2017-09-23T20:09:52.585Z,10.80
2017-09-23T20:12:20.994Z,10.80
2017-09-23T20:14:50.170Z,10.80
2017-09-23T20:17:18.618Z,10.80
2017-09-23T20:19:47.019Z,10.80
2017-09-23T20:22:15.428Z,10.70
2017-09-23T20:24:44.661Z,10.90
2017-09-23T20:27:13.090Z,10.80
2017-09-23T20:29:41.493Z,10.90
2017-09-23T20:32:10.668Z,10.80
2017-09-23T20:34:39.782Z,10.80
2017-09-23T20:37:08.948Z,10.70
2017-09-23T20:39:37.418Z,10.70
2017-09-23T20:42:05.823Z,10.70
2017-09-23T20:44:34.222Z,10.70
2017-09-23T20:47:02.626Z,10.80
2017-09-23T20:49:31.013Z,10.80
2017-09-23T20:51:59.411Z,10.60
2017-09-23T20:54:27.862Z,10.60
2017-09-23T20:56:56.172Z,10.60
2017-09-23T20:59:24.641Z,10.60
2017-09-23T21:01:52.684Z,10.70
2017-09-23T21:04:21.122Z,10.70
2017-09-23T21:06:49.515Z,10.60
2017-09-23T21:09:18.690Z,10.60
2017-09-23T21:11:47.083Z,10.60
2017-09-23T21:14:16.525Z,10.50
2017-09-23T21:16:44.919Z,10.40
2017-09-23T21:19:13.324Z,10.40
2017-09-23T21:21:41.724Z,10.50
2017-09-23T21:24:10.894Z,10.50
2017-09-23T21:26:39.310Z,10.50
2017-09-23T21:29:08.474Z,10.40
2017-09-23T21:31:37.185Z,10.40
2017-09-23T21:34:06.341Z,10.50
2017-09-23T21:36:34.742Z,10.40
2017-09-23T21:41:56.290Z,10.30
2017-09-23T21:44:25.463Z,10.20
2017-09-23T21:46:53.852Z,10.20
2017-09-23T21:49:22.399Z,10.20
2017-09-23T21:51:50.792Z,10.10
2017-09-23T21:54:19.252Z,10.10
2017-09-23T21:56:48.630Z,10.00
2017-09-23T21:59:17.021Z,10.10
2017-09-23T22:01:45.418Z,10.00
2017-09-23T22:04:13.810Z,10.10
2017-09-23T22:06:43.887Z,10.00
2017-09-23T22:09:12.293Z,10.00
2017-09-23T22:11:40.691Z,9.90
2017-09-23T22:14:09.078Z,9.90
2017-09-23T22:16:37.480Z,10.00
2017-09-23T22:19:06.630Z,10.10
2017-09-23T22:21:35.979Z,10.10
2017-09-23T22:24:05.127Z,10.10
2017-09-23T22:26:33.518Z,10.00
2017-09-23T22:29:01.915Z,10.00
2017-09-23T22:31:30.293Z,9.80
2017-09-23T22:33:58.689Z,9.60
2017-09-23T22:36:27.846Z,9.50
2017-09-23T22:38:56.402Z,9.50
2017-09-23T22:41:24.794Z,9.50
2017-09-23T22:43:53.192Z,9.30
2017-09-23T22:46:21.586Z,9.30
2017-09-23T22:48:49.968Z,9.20
2017-09-23T22:51:18.365Z,9.30
2017-09-23T22:53:46.753Z,9.40
2017-09-23T22:56:15.131Z,9.40
2017-09-23T22:58:43.538Z,9.40
2017-09-23T23:01:11.922Z,9.40
2017-09-23T23:03:40.345Z,9.30
2017-09-23T23:06:09.142Z,9.10
2017-09-23T23:08:38.297Z,9.10
2017-09-23T23:11:06.692Z,9.00
2017-09-23T23:13:35.850Z,8.90
2017-09-23T23:16:04.239Z,8.90
2017-09-23T23:18:32.624Z,8.90
2017-09-23T23:21:01.229Z,8.90
2017-09-23T23:23:29.610Z,8.90
2017-09-23T23:25:58.782Z,8.90
2017-09-23T23:28:27.177Z,8.80
2017-09-23T23:30:55.582Z,8.80
2017-09-23T23:33:24.216Z,8.70
2017-09-23T23:35:52.603Z,8.60
2017-09-23T23:38:20.993Z,8.60
2017-09-23T23:40:49.390Z,8.50
2017-09-23T23:43:18.545Z,8.40
2017-09-23T23:45:46.940Z,8.40
2017-09-23T23:48:15.338Z,8.50
2017-09-23T23:50:44.502Z,8.60
2017-09-23T23:53:13.659Z,8.60
2017-09-23T23:55:42.214Z,8.60
2017-09-23T23:58:10.595Z,8.50
